createdAt,value
2023-01-12T00:02:38.927Z,2.51
2023-01-12T00:05:55.089Z,2.46
2023-01-12T00:09:12.644Z,2.48
2023-01-12T00:12:28.703Z,2.52
2023-01-12T00:15:56.128Z,2.53
2023-01-12T00:19:17.707Z,2.81
2023-01-12T00:22:33.780Z,3.01
2023-01-12T00:25:49.942Z,3.12
2023-01-12T00:29:06.135Z,3.27
2023-01-12T00:32:26.288Z,3.38
2023-01-12T00:35:44.544Z,3.47
2023-01-12T00:39:00.985Z,3.55
2023-01-12T00:42:33.317Z,3.64
2023-01-12T00:45:49.526Z,3.75
2023-01-12T00:49:07.041Z,3.80
2023-01-12T00:52:30.956Z,3.85
2023-01-12T00:55:43.653Z,3.91
2023-01-12T00:58:59.651Z,3.96
2023-01-12T01:02:16.127Z,4.00
2023-01-12T01:05:32.499Z,4.05
2023-01-12T01:08:48.588Z,4.08
2023-01-12T01:12:05.084Z,4.10
2023-01-12T01:15:22.919Z,4.12
2023-01-12T01:18:40.243Z,4.13
2023-01-12T01:21:56.496Z,4.15
2023-01-12T01:25:15.094Z,4.14
2023-01-12T01:28:31.622Z,4.18
2023-01-12T01:31:48.411Z,4.17
2023-01-12T01:35:04.459Z,4.14
2023-01-12T01:38:20.598Z,4.12
2023-01-12T01:41:39.138Z,4.14
2023-01-12T01:45:04.003Z,4.14
2023-01-12T01:48:22.849Z,4.14
2023-01-12T01:51:38.911Z,4.19
2023-01-12T01:54:59.079Z,4.18
2023-01-12T01:58:19.482Z,4.21
2023-01-12T02:01:37.114Z,4.24
2023-01-12T02:04:54.218Z,4.26
2023-01-12T02:08:16.100Z,4.21
2023-01-12T02:11:48.242Z,4.18
2023-01-12T02:15:19.052Z,4.13
2023-01-12T02:18:39.725Z,4.10
2023-01-12T02:22:41.779Z,4.10
2023-01-12T02:26:41.059Z,4.15
2023-01-12T02:30:57.709Z,4.15
2023-01-12T02:34:25.321Z,4.13
2023-01-12T02:37:49.035Z,4.13
2023-01-12T02:41:11.245Z,4.12
2023-01-12T02:44:33.688Z,4.13
2023-01-12T02:47:54.871Z,4.11
2023-01-12T02:51:16.051Z,4.08
2023-01-12T02:54:35.559Z,4.07
2023-01-12T02:57:53.317Z,4.08
2023-01-12T03:01:12.540Z,4.12
2023-01-12T03:04:30.890Z,4.12
2023-01-12T03:07:59.071Z,4.06
2023-01-12T03:11:26.474Z,4.03
2023-01-12T03:14:46.511Z,4.05
2023-01-12T03:18:10.259Z,4.07
2023-01-12T03:21:34.326Z,4.05
2023-01-12T03:24:54.247Z,3.96
2023-01-12T03:28:17.004Z,3.82
2023-01-12T03:31:34.355Z,3.79
2023-01-12T03:34:50.687Z,3.81
2023-01-12T03:38:11.368Z,3.86
2023-01-12T03:41:34.525Z,3.88
2023-01-12T03:44:56.353Z,3.90
2023-01-12T03:48:17.768Z,3.91
2023-01-12T03:51:37.553Z,3.90
2023-01-12T03:54:57.552Z,3.85
2023-01-12T03:58:14.427Z,3.62
2023-01-12T04:01:30.767Z,3.69
2023-01-12T04:04:47.269Z,3.70
2023-01-12T04:08:03.287Z,3.72
2023-01-12T04:11:33.719Z,3.75
2023-01-12T04:14:52.359Z,3.62
2023-01-12T04:18:11.237Z,3.67
2023-01-12T04:21:41.443Z,3.70
2023-01-12T04:24:57.897Z,3.83
2023-01-12T04:28:14.261Z,3.89
2023-01-12T04:31:31.789Z,3.93
2023-01-12T04:34:48.096Z,3.91
2023-01-12T04:38:04.255Z,3.95
2023-01-12T04:41:20.483Z,4.02
2023-01-12T04:44:38.476Z,4.10
2023-01-12T04:47:54.552Z,4.18
2023-01-12T04:51:11.365Z,4.25
2023-01-12T04:54:27.685Z,4.31
2023-01-12T04:57:43.833Z,4.37
2023-01-12T05:01:00.093Z,4.42
2023-01-12T05:04:16.494Z,4.47
2023-01-12T05:07:32.623Z,4.49
2023-01-12T05:10:50.304Z,4.53
2023-01-12T05:14:06.786Z,4.57
2023-01-12T05:17:22.877Z,4.62
2023-01-12T05:20:38.984Z,4.63
2023-01-12T05:23:55.580Z,4.63
2023-01-12T05:27:11.742Z,4.65
2023-01-12T05:30:29.974Z,4.66
2023-01-12T05:33:47.795Z,4.67
2023-01-12T05:37:04.038Z,4.65
2023-01-12T05:40:21.938Z,4.63
2023-01-12T05:43:57.450Z,4.60
2023-01-12T05:47:13.638Z,4.59
2023-01-12T05:50:32.329Z,4.57
2023-01-12T05:53:53.461Z,4.55
2023-01-12T05:57:09.714Z,4.54
2023-01-12T06:00:27.219Z,4.54
2023-01-12T06:03:47.893Z,4.56
2023-01-12T06:07:04.061Z,4.51
2023-01-12T06:10:22.284Z,4.46
2023-01-12T06:13:52.379Z,4.40
2023-01-12T06:17:08.716Z,4.38
2023-01-12T06:20:25.396Z,4.40
2023-01-12T06:23:42.516Z,4.38
2023-01-12T06:26:59.455Z,4.38
2023-01-12T06:30:19.414Z,4.38
2023-01-12T06:33:36.842Z,4.35
2023-01-12T06:36:54.244Z,4.35
2023-01-12T06:40:10.876Z,4.39
2023-01-12T06:43:32.410Z,4.41
2023-01-12T06:46:48.715Z,4.46
2023-01-12T06:50:04.955Z,4.49
2023-01-12T06:53:21.034Z,4.50
2023-01-12T06:56:37.357Z,4.53
2023-01-12T06:59:54.448Z,4.53
2023-01-12T07:03:10.848Z,4.49
2023-01-12T07:06:27.233Z,4.49
2023-01-12T07:09:44.053Z,4.48
2023-01-12T07:13:00.270Z,4.41
2023-01-12T07:16:17.570Z,4.46
2023-01-12T07:19:33.740Z,4.44
2023-01-12T07:22:50.913Z,4.52
2023-01-12T07:26:08.029Z,4.57
2023-01-12T07:29:24.516Z,4.65
2023-01-12T07:32:40.629Z,4.69
2023-01-12T07:35:56.996Z,4.69
2023-01-12T07:39:13.786Z,4.66
2023-01-12T07:42:30.065Z,4.58
2023-01-12T07:45:46.459Z,4.49
2023-01-12T07:49:12.087Z,4.46
2023-01-12T07:52:28.237Z,4.44
2023-01-12T07:55:51.153Z,4.45
2023-01-12T07:59:07.337Z,4.49
2023-01-12T08:02:23.928Z,4.55
2023-01-12T08:05:41.156Z,4.62
2023-01-12T08:08:58.008Z,4.62
2023-01-12T08:12:22.517Z,4.67
2023-01-12T08:15:43.698Z,4.75
2023-01-12T08:19:13.610Z,4.81
2023-01-12T08:22:33.706Z,4.88
2023-01-12T08:25:56.445Z,4.95
2023-01-12T08:29:16.962Z,5.00
2023-01-12T08:32:35.433Z,4.99
2023-01-12T08:35:53.636Z,5.00
2023-01-12T08:39:10.142Z,4.99
2023-01-12T08:42:30.859Z,5.06
2023-01-12T08:45:46.525Z,5.16
2023-01-12T08:49:02.643Z,5.22
2023-01-12T08:52:22.608Z,5.30
2023-01-12T08:55:46.077Z,5.38
2023-01-12T08:59:03.950Z,5.42
2023-01-12T09:02:24.997Z,5.42
2023-01-12T09:05:41.374Z,5.45
2023-01-12T09:09:00.779Z,5.46
2023-01-12T09:12:17.395Z,5.54
2023-01-12T09:15:33.890Z,5.58
2023-01-12T09:18:50.949Z,5.65
2023-01-12T09:22:07.034Z,5.75
2023-01-12T09:25:23.765Z,5.83
2023-01-12T09:28:40.410Z,5.93
2023-01-12T09:31:56.643Z,6.04
2023-01-12T09:35:15.577Z,6.19
2023-01-12T09:38:32.109Z,6.48
2023-01-12T09:42:06.264Z,6.71
2023-01-12T09:45:42.968Z,6.95
2023-01-12T09:48:59.682Z,7.24
2023-01-12T09:52:23.475Z,7.51
2023-01-12T09:55:45.064Z,7.71
2023-01-12T09:59:28.156Z,7.85
2023-01-12T10:02:47.852Z,7.94
2023-01-12T10:06:07.291Z,8.09
2023-01-12T10:09:24.489Z,8.21
2023-01-12T10:12:45.103Z,8.36
2023-01-12T10:16:05.911Z,8.48
2023-01-12T10:19:30.325Z,8.48
2023-01-12T10:22:53.694Z,8.64
2023-01-12T10:26:16.247Z,8.68
2023-01-12T10:29:32.579Z,8.83
2023-01-12T10:32:49.919Z,8.88
2023-01-12T10:36:10.014Z,9.01
2023-01-12T10:39:51.163Z,9.18
2023-01-12T10:43:24.740Z,9.20
2023-01-12T10:46:42.139Z,9.25
2023-01-12T10:50:01.551Z,9.26
2023-01-12T10:53:26.105Z,9.32
2023-01-12T10:56:47.517Z,9.16
2023-01-12T11:00:06.692Z,9.26
2023-01-12T11:03:43.175Z,9.15
2023-01-12T11:07:13.288Z,9.20
2023-01-12T11:10:39.470Z,9.06
2023-01-12T11:13:55.774Z,9.06
2023-01-12T11:17:29.648Z,9.10
2023-01-12T11:20:50.966Z,9.23
2023-01-12T11:24:10.791Z,9.32
2023-01-12T11:27:32.321Z,9.29
2023-01-12T11:30:54.940Z,9.28
2023-01-12T11:34:17.728Z,9.28
2023-01-12T11:37:34.631Z,9.27
2023-01-12T11:41:02.875Z,9.29
2023-01-12T11:44:25.271Z,9.33
2023-01-12T11:47:47.257Z,9.23
2023-01-12T11:51:05.333Z,9.16
2023-01-12T11:54:26.939Z,9.15
2023-01-12T11:58:02.833Z,9.14
2023-01-12T12:01:24.936Z,9.05
2023-01-12T12:04:53.431Z,8.98
2023-01-12T12:08:36.704Z,8.96
2023-01-12T12:11:58.601Z,8.98
2023-01-12T12:15:33.808Z,8.99
2023-01-12T12:19:08.818Z,8.96
2023-01-12T12:22:42.390Z,8.94
2023-01-12T12:26:07.778Z,8.97
2023-01-12T12:29:40.279Z,8.95
2023-01-12T12:33:01.706Z,8.88
2023-01-12T12:36:27.262Z,8.86
2023-01-12T12:39:55.836Z,8.87
2023-01-12T12:43:32.666Z,8.88
2023-01-12T12:46:56.353Z,8.95
2023-01-12T12:50:21.118Z,8.89
2023-01-12T12:53:41.962Z,8.88
2023-01-12T12:56:59.012Z,8.88
2023-01-12T13:00:37.311Z,8.89
2023-01-12T13:04:01.820Z,8.88
2023-01-12T13:07:26.532Z,8.84
2023-01-12T13:10:44.655Z,8.81
2023-01-12T13:14:14.059Z,8.78
2023-01-12T13:17:48.270Z,8.79
2023-01-12T13:21:06.428Z,8.77
2023-01-12T13:24:36.121Z,8.77
2023-01-12T13:28:15.887Z,8.78
2023-01-12T13:34:52.146Z,8.69
2023-01-12T13:38:26.336Z,8.63
2023-01-12T13:42:01.559Z,8.64
2023-01-12T13:45:25.533Z,8.62
2023-01-12T13:48:45.647Z,8.62
2023-01-12T13:52:10.427Z,8.60
2023-01-12T13:55:32.606Z,8.56
2023-01-12T13:58:54.043Z,8.55
2023-01-12T14:02:18.631Z,8.51
2023-01-12T14:06:03.570Z,8.49
2023-01-12T14:09:29.068Z,8.44
2023-01-12T14:13:23.075Z,8.40
2023-01-12T14:17:05.243Z,8.36
2023-01-12T14:20:23.037Z,8.31
2023-01-12T14:23:40.480Z,8.21
2023-01-12T14:26:57.068Z,8.17
2023-01-12T14:30:18.300Z,8.14
2023-01-12T14:33:37.647Z,8.07
2023-01-12T14:36:56.423Z,8.06
2023-01-12T14:40:22.231Z,8.04
2023-01-12T14:43:56.643Z,7.98
2023-01-12T14:47:13.732Z,7.93
2023-01-12T14:50:32.147Z,7.90
2023-01-12T14:53:52.895Z,7.83
2023-01-12T14:57:11.912Z,7.76
2023-01-12T15:00:34.972Z,7.71
2023-01-12T15:03:54.026Z,7.59
2023-01-12T15:07:17.419Z,7.49
2023-01-12T15:10:41.602Z,7.43
2023-01-12T15:14:05.618Z,7.39
2023-01-12T15:17:35.669Z,7.38
2023-01-12T15:21:08.223Z,7.21
2023-01-12T15:24:48.926Z,7.22
2023-01-12T15:28:05.158Z,7.08
2023-01-12T15:31:32.829Z,6.97
2023-01-12T15:34:49.639Z,6.91
2023-01-12T15:38:21.706Z,6.83
2023-01-12T15:41:53.689Z,6.74
2023-01-12T15:45:11.739Z,6.64
2023-01-12T15:48:29.317Z,6.43
2023-01-12T15:51:46.091Z,6.38
2023-01-12T15:55:02.408Z,6.30
2023-01-12T15:58:22.229Z,6.25
2023-01-12T16:01:43.544Z,6.18
2023-01-12T16:05:00.437Z,6.17
2023-01-12T16:08:17.110Z,6.13
2023-01-12T16:11:36.021Z,6.09
2023-01-12T16:14:52.757Z,6.01
2023-01-12T16:18:10.323Z,5.98
2023-01-12T16:21:28.142Z,5.96
2023-01-12T16:24:46.088Z,5.96
2023-01-12T16:28:05.642Z,5.93
2023-01-12T16:31:25.945Z,5.85
2023-01-12T16:34:43.267Z,5.77
2023-01-12T16:38:01.676Z,5.75
2023-01-12T16:41:27.365Z,5.68
2023-01-12T16:44:46.679Z,5.66
2023-01-12T16:48:05.060Z,5.63
2023-01-12T16:51:25.606Z,5.58
2023-01-12T16:54:43.364Z,5.52
2023-01-12T16:58:00.073Z,5.55
2023-01-12T17:01:27.012Z,5.62
2023-01-12T17:04:50.934Z,5.56
2023-01-12T17:08:10.781Z,5.57
2023-01-12T17:11:28.921Z,5.62
2023-01-12T17:14:45.874Z,5.59
2023-01-12T17:18:02.565Z,5.56
2023-01-12T17:21:22.505Z,5.49
2023-01-12T17:24:41.248Z,5.40
2023-01-12T17:28:00.502Z,5.37
2023-01-12T17:31:25.532Z,5.39
2023-01-12T17:34:53.116Z,5.34
2023-01-12T17:38:10.411Z,5.34
2023-01-12T17:41:45.095Z,5.42
2023-01-12T17:45:03.393Z,5.41
2023-01-12T17:48:20.734Z,5.44
2023-01-12T17:51:38.723Z,5.38
2023-01-12T17:54:55.858Z,5.37
2023-01-12T17:58:13.113Z,5.33
2023-01-12T18:01:32.949Z,5.34
2023-01-12T18:04:50.318Z,5.33
2023-01-12T18:08:07.612Z,5.35
2023-01-12T18:11:25.518Z,5.37
2023-01-12T18:14:42.573Z,5.30
2023-01-12T18:17:59.067Z,5.35
2023-01-12T18:21:18.258Z,5.34
2023-01-12T18:24:34.849Z,5.33
2023-01-12T18:27:51.458Z,5.28
2023-01-12T18:31:14.951Z,5.32
2023-01-12T18:34:32.013Z,5.30
2023-01-12T18:37:48.420Z,5.32
2023-01-12T18:41:22.565Z,5.31
2023-01-12T18:44:39.682Z,5.28
2023-01-12T18:48:10.701Z,5.22
2023-01-12T18:51:41.116Z,5.32
2023-01-12T18:54:59.580Z,5.29
2023-01-12T18:58:17.113Z,5.35
2023-01-12T19:01:36.638Z,5.34
2023-01-12T19:05:07.672Z,5.37
2023-01-12T19:08:38.308Z,5.43
2023-01-12T19:11:55.634Z,5.40
2023-01-12T19:15:29.706Z,5.42
2023-01-12T19:18:46.053Z,5.37
2023-01-12T19:22:16.961Z,5.38
2023-01-12T19:25:48.161Z,5.39
2023-01-12T19:29:04.632Z,5.41
2023-01-12T19:32:20.945Z,5.43
2023-01-12T19:35:37.428Z,5.44
2023-01-12T19:38:55.796Z,5.41
2023-01-12T19:42:26.581Z,5.39
2023-01-12T19:45:46.793Z,5.45
2023-01-12T19:49:03.315Z,5.50
2023-01-12T19:52:19.825Z,5.39
2023-01-12T19:55:37.975Z,5.47
2023-01-12T19:58:56.713Z,5.46
2023-01-12T20:02:14.781Z,5.47
2023-01-12T20:05:32.615Z,5.52
2023-01-12T20:08:50.798Z,5.55
2023-01-12T20:12:07.503Z,5.57
2023-01-12T20:15:25.166Z,5.61
2023-01-12T20:18:43.723Z,5.64
2023-01-12T20:22:00.904Z,5.69
2023-01-12T20:25:22.953Z,5.76
2023-01-12T20:28:39.422Z,5.78
2023-01-12T20:31:57.849Z,5.80
2023-01-12T20:35:17.385Z,5.83
2023-01-12T20:38:34.825Z,5.81
2023-01-12T20:41:51.791Z,5.84
2023-01-12T20:45:09.672Z,5.86
2023-01-12T20:48:26.713Z,5.90
2023-01-12T20:51:43.540Z,5.89
2023-01-12T20:55:00.963Z,5.93
2023-01-12T20:58:18.118Z,5.95
2023-01-12T21:01:36.074Z,5.96
2023-01-12T21:04:54.048Z,6.04
2023-01-12T21:08:10.935Z,6.06
2023-01-12T21:11:28.870Z,6.09
2023-01-12T21:14:46.041Z,6.09
2023-01-12T21:18:02.922Z,6.10
2023-01-12T21:21:20.260Z,6.11
2023-01-12T21:24:37.605Z,6.10
2023-01-12T21:27:54.636Z,6.17
2023-01-12T21:31:13.461Z,6.17
2023-01-12T21:34:29.983Z,6.21
2023-01-12T21:37:46.581Z,6.17
2023-01-12T21:41:05.538Z,6.16
2023-01-12T21:44:22.298Z,6.18
2023-01-12T21:47:40.640Z,6.18
2023-01-12T21:50:59.158Z,6.17
2023-01-12T21:54:16.126Z,6.14
2023-01-12T21:57:32.803Z,6.11
2023-01-12T22:00:49.744Z,6.11
2023-01-12T22:04:07.088Z,6.09
2023-01-12T22:07:25.280Z,6.06
2023-01-12T22:10:41.850Z,6.06
2023-01-12T22:14:01.490Z,6.04
2023-01-12T22:17:21.108Z,6.02
2023-01-12T22:20:38.238Z,5.97
2023-01-12T22:23:55.124Z,5.98
2023-01-12T22:27:11.685Z,5.96
2023-01-12T22:30:31.504Z,5.95
2023-01-12T22:33:53.347Z,5.91
2023-01-12T22:37:11.930Z,5.90
2023-01-12T22:40:29.147Z,5.85
2023-01-12T22:43:46.214Z,5.76
2023-01-12T22:47:02.580Z,5.71
2023-01-12T22:50:20.583Z,5.57
2023-01-12T22:53:36.953Z,5.45
2023-01-12T22:56:53.696Z,5.42
2023-01-12T23:00:12.317Z,5.28
2023-01-12T23:03:29.299Z,5.18
2023-01-12T23:06:46.057Z,5.04
2023-01-12T23:10:02.425Z,5.07
2023-01-12T23:13:23.645Z,5.08
2023-01-12T23:16:39.937Z,4.91
2023-01-12T23:19:56.440Z,4.63
2023-01-12T23:23:14.207Z,4.52
2023-01-12T23:26:34.349Z,4.31
2023-01-12T23:29:50.947Z,4.10
2023-01-12T23:33:09.323Z,4.03
2023-01-12T23:36:28.963Z,3.94
2023-01-12T23:39:45.492Z,4.04
2023-01-12T23:43:02.317Z,3.99
2023-01-12T23:46:25.400Z,3.97
2023-01-12T23:49:42.001Z,3.82
2023-01-12T23:53:00.497Z,3.83
2023-01-12T23:56:20.391Z,3.85
2023-01-12T23:59:34.396Z,3.79
